createdAt,value
2022-12-13T00:00:20.642Z,-5.39
2022-12-13T00:01:23.365Z,-5.37
2022-12-13T00:02:25.851Z,-5.39
2022-12-13T00:03:28.194Z,-5.37
2022-12-13T00:04:30.405Z,-5.34
2022-12-13T00:05:33.682Z,-5.43
2022-12-13T00:06:36.927Z,-5.46
2022-12-13T00:07:39.171Z,-5.52
2022-12-13T00:08:41.795Z,-5.62
2022-12-13T00:09:44.149Z,-5.65
2022-12-13T00:10:46.315Z,-5.65
2022-12-13T00:11:49.511Z,-5.73
2022-12-13T00:12:51.737Z,-5.72
2022-12-13T00:13:54.321Z,-5.71
2022-12-13T00:14:56.607Z,-5.77
2022-12-13T00:16:00.643Z,-5.81
2022-12-13T00:17:02.880Z,-5.79
2022-12-13T00:18:05.152Z,-5.70
2022-12-13T00:19:07.346Z,-5.69
2022-12-13T00:20:09.774Z,-5.74
2022-12-13T00:21:16.385Z,-5.73
2022-12-13T00:22:18.514Z,-5.79
2022-12-13T00:23:21.087Z,-5.72
2022-12-13T00:24:23.338Z,-5.67
2022-12-13T00:25:25.872Z,-5.67
2022-12-13T00:26:32.210Z,-5.64
2022-12-13T00:27:34.553Z,-5.64
2022-12-13T00:28:37.661Z,-5.57
2022-12-13T00:29:39.963Z,-5.63
2022-12-13T00:30:42.867Z,-5.61
2022-12-13T00:31:59.579Z,-5.63
2022-12-13T00:33:02.438Z,-5.64
2022-12-13T00:34:04.583Z,-5.58
2022-12-13T00:35:06.964Z,-5.61
2022-12-13T00:36:09.540Z,-5.58
2022-12-13T00:37:11.822Z,-5.62
2022-12-13T00:38:14.034Z,-5.63
2022-12-13T00:39:18.885Z,-5.57
2022-12-13T00:40:21.214Z,-5.53
2022-12-13T00:41:23.327Z,-5.46
2022-12-13T00:42:25.513Z,-5.43
2022-12-13T00:43:27.632Z,-5.36
2022-12-13T00:44:31.177Z,-5.41
2022-12-13T00:45:33.736Z,-5.40
2022-12-13T00:46:35.992Z,-5.38
2022-12-13T00:47:38.220Z,-5.39
2022-12-13T00:48:40.571Z,-5.44
2022-12-13T00:49:42.727Z,-5.49
2022-12-13T00:50:44.921Z,-5.49
2022-12-13T00:51:49.372Z,-5.53
2022-12-13T00:52:51.533Z,-5.55
2022-12-13T00:53:54.207Z,-5.52
2022-12-13T00:54:56.438Z,-5.52
2022-12-13T00:55:58.672Z,-5.52
2022-12-13T00:57:00.904Z,-5.53
2022-12-13T00:58:03.138Z,-5.51
2022-12-13T00:59:05.306Z,-5.58
2022-12-13T01:00:08.468Z,-5.58
2022-12-13T01:01:14.139Z,-5.56
2022-12-13T01:02:16.673Z,-5.49
2022-12-13T01:03:25.282Z,-5.52
2022-12-13T01:04:27.560Z,-5.58
2022-12-13T01:06:11.191Z,-5.59
2022-12-13T01:06:51.900Z,-5.75
2022-12-13T01:07:54.257Z,-5.81
2022-12-13T01:08:56.621Z,-5.82
2022-12-13T01:10:00.969Z,-5.82
2022-12-13T01:11:05.014Z,-5.87
2022-12-13T01:12:07.219Z,-5.96
2022-12-13T01:13:09.686Z,-5.97
2022-12-13T01:14:12.004Z,-6.06
2022-12-13T01:15:14.474Z,-6.01
2022-12-13T01:16:18.512Z,-6.01
2022-12-13T01:17:20.939Z,-6.08
2022-12-13T01:18:23.106Z,-6.12
2022-12-13T01:19:27.028Z,-6.06
2022-12-13T01:20:29.258Z,-6.01
2022-12-13T01:21:31.379Z,-6.10
2022-12-13T01:22:33.609Z,-6.19
2022-12-13T01:23:35.857Z,-6.15
2022-12-13T01:24:38.586Z,-6.12
2022-12-13T01:25:40.917Z,-6.12
2022-12-13T01:26:43.164Z,-6.13
2022-12-13T01:27:45.448Z,-6.19
2022-12-13T01:28:48.109Z,-6.16
2022-12-13T01:29:50.305Z,-6.12
2022-12-13T01:30:57.491Z,-6.08
2022-12-13T01:31:59.737Z,-6.20
2022-12-13T01:33:01.943Z,-6.19
2022-12-13T01:34:19.435Z,-6.22
2022-12-13T01:35:21.585Z,-6.27
2022-12-13T01:36:27.763Z,-6.34
2022-12-13T01:37:30.526Z,-6.29
2022-12-13T01:38:37.876Z,-6.27
2022-12-13T01:39:40.501Z,-6.14
2022-12-13T01:40:44.985Z,-6.09
2022-12-13T01:41:50.055Z,-5.95
2022-12-13T01:42:52.220Z,-5.93
2022-12-13T01:43:57.459Z,-5.86
2022-12-13T01:45:03.765Z,-5.78
2022-12-13T01:46:06.351Z,-5.72
2022-12-13T01:47:09.118Z,-5.74
2022-12-13T01:48:19.459Z,-5.74
2022-12-13T01:49:21.809Z,-5.71
2022-12-13T01:50:31.864Z,-5.66
2022-12-13T01:51:42.812Z,-5.68
2022-12-13T01:52:46.304Z,-5.68
2022-12-13T01:53:50.710Z,-5.67
2022-12-13T01:54:57.434Z,-5.69
2022-12-13T01:56:14.644Z,-5.69
2022-12-13T01:57:20.535Z,-5.68
2022-12-13T01:58:23.029Z,-5.66
2022-12-13T01:59:27.091Z,-5.63
